createdAt,value
2022-11-15T00:11:27.740Z,21.8
2022-11-15T00:26:37.016Z,20.8
2022-11-15T00:41:46.613Z,20.8
2022-11-15T00:56:56.370Z,23.7
2022-11-15T01:12:05.909Z,20.4
2022-11-15T01:27:15.401Z,22.7
2022-11-15T01:42:25.387Z,19.4
2022-11-15T01:57:34.773Z,17.6
2022-11-15T02:12:44.665Z,15.9
2022-11-15T02:27:56.239Z,15.4
2022-11-15T02:43:08.916Z,15
2022-11-15T02:58:18.365Z,13.5
2022-11-15T03:13:29.318Z,11.3
2022-11-15T03:28:39.778Z,15.2
2022-11-15T03:43:49.218Z,13.5
2022-11-15T03:58:58.546Z,16.8
2022-11-15T04:14:08.204Z,13.5
2022-11-15T04:29:18.109Z,18.1
2022-11-15T04:44:28.015Z,11.7
2022-11-15T04:59:36.888Z,14.1
2022-11-15T05:14:46.252Z,11.6
2022-11-15T05:29:56.164Z,11.1
2022-11-15T05:45:05.588Z,12.2
2022-11-15T06:00:14.973Z,10.6
2022-11-15T06:15:24.547Z,10.3
2022-11-15T06:30:33.980Z,13.1
2022-11-15T06:45:43.339Z,13.1
2022-11-15T07:00:56.266Z,11.3
2022-11-15T07:16:06.183Z,12.5
2022-11-15T09:06:21.243Z,7.8
2022-11-15T09:21:39.101Z,7.3
2022-11-15T09:36:48.273Z,7.8
2022-11-15T09:52:00.800Z,8.4
2022-11-15T10:07:11.068Z,7.3
2022-11-15T10:22:21.013Z,7.9
2022-11-15T10:37:30.304Z,6.6
2022-11-15T10:52:40.098Z,6.8
2022-11-15T11:07:49.522Z,6.4
2022-11-15T11:23:01.774Z,4.6
2022-11-15T11:38:11.238Z,4.1
2022-11-15T11:53:23.471Z,4.8
2022-11-15T12:08:35.073Z,4.1
2022-11-15T12:58:08.257Z,5.2
2022-11-15T13:13:24.126Z,5
2022-11-15T13:28:33.925Z,4
2022-11-15T13:43:44.120Z,5.1
2022-11-15T13:58:57.832Z,7.3
2022-11-15T14:14:07.482Z,8.2
2022-11-15T14:29:18.523Z,6.7
2022-11-15T14:44:27.692Z,10.6
2022-11-15T14:59:37.094Z,7.2
2022-11-15T15:14:46.707Z,5.1
2022-11-15T15:29:55.845Z,7.2
2022-11-15T15:45:05.194Z,5.4
2022-11-15T16:00:17.179Z,5.5
2022-11-15T16:15:27.732Z,7.3
2022-11-15T16:30:37.004Z,4.8
2022-11-15T16:45:46.976Z,5.7
2022-11-15T17:00:57.531Z,6.5
2022-11-15T17:16:07.717Z,7.9
2022-11-15T17:31:17.338Z,15.8
2022-11-15T17:46:26.756Z,10.1
2022-11-15T18:01:36.570Z,10.7
2022-11-15T18:16:46.318Z,13.9
2022-11-15T18:31:57.070Z,11.2
2022-11-15T18:47:06.558Z,13.8
2022-11-15T19:02:15.934Z,10.8
2022-11-15T19:17:25.410Z,12.3
2022-11-15T19:32:34.791Z,12.3
2022-11-15T19:47:44.587Z,10.2
2022-11-15T20:02:54.676Z,12
2022-11-15T20:18:03.883Z,8.9
2022-11-15T20:33:13.574Z,8.1
2022-11-15T20:48:23.293Z,11
2022-11-15T21:03:33.117Z,13.4
2022-11-15T21:18:43.714Z,9.5
2022-11-15T21:33:53.878Z,8.3
2022-11-15T21:49:03.691Z,10.9
2022-11-15T22:04:13.227Z,12.1
2022-11-15T22:19:22.577Z,6.3
2022-11-15T22:34:32.347Z,6.3
2022-11-15T22:49:42.204Z,7.6
2022-11-15T23:04:52.160Z,10.2
2022-11-15T23:20:44.006Z,6.3
2022-11-15T23:35:58.357Z,11
2022-11-15T23:51:08.563Z,9
